Latest Weather Observations for Daly Waters

IDD60801

Issued at 9:05 am CST Saturday 20 September 2014 (issued every 30 minutes, with the page automatically refreshed every 10 minutes)

About weather observations | Map of weather stations | Latest weather observations for NT | Other Formats
Station Details ID: 014626 Name: DALY WATERS AIRSTRIP Lat: -16.26 Lon: 133.38 Height: 209.84 m
Data from the previous 72 hours. | See also: Recent months at Daly Waters
Date/Time
CST
Temp
°C
App
Temp
°C
Dew
Point
Rel
Hum
%
Delta-T
°C
Wind Press
QNH
hPa
Press
MSL
hPa
Rain
since 9 am
mm
Dir
 
Spd
km/h
Gust
km/h
Spd
kts
Gust
kts
20/09:00am 27.5 25.9 7.9 29 10.6 N 6 9 3 5 1017.0 1015.9 0.0
20/08:30am 25.7 24.9 9.5 36 9.0 NNE 4 7 2 4 1016.9 1015.8 0.0
20/08:00am 23.0 22.0 10.4 45 7.0 NE 6 9 3 5 1016.6 1015.5 0.0
20/07:52am 22.0 21.1 10.5 48 6.4 NE 6 9 3 5 1016.5 1015.4 0.0
20/07:30am 17.0 16.6 8.2 56 4.5 CALM 0 0 0 0 1016.3 1015.2 0.0
20/07:00am 12.8 12.0 6.4 65 3.1 CALM 0 2 0 1 1016.0 1014.8 0.0
20/06:30am 11.9 10.5 5.5 65 3.0 E 2 4 1 2 1015.7 1014.5 0.0
20/06:00am 12.2 11.2 5.6 64 3.1 NE 0 0 0 0 1015.5 1014.3 0.0
20/05:30am 12.4 11.3 5.3 62 3.3 CALM 0 0 0 0 1015.5 1014.3 0.0
20/05:00am 12.7 11.7 5.4 61 3.4 CALM 0 0 0 0 1015.3 1014.1 0.0
20/04:30am 13.2 12.1 5.1 58 3.8 CALM 0 0 0 0 1015.3 1014.1 0.0
20/04:00am 13.4 12.3 5.1 57 3.9 CALM 0 0 0 0 1015.2 1014.0 0.0
20/03:30am 13.9 12.8 5.0 55 4.2 CALM 0 0 0 0 1015.2 1014.0 0.0
20/03:00am 14.1 12.9 4.7 53 4.4 CALM 0 6 0 3 1015.5 1014.3 0.0
20/02:30am 14.4 12.5 5.0 53 4.4 SSE 4 7 2 4 1015.4 1014.2 0.0
20/02:00am 14.9 13.6 4.3 49 5.0 CALM 0 0 0 0 1015.5 1014.3 0.0
20/01:30am 15.6 14.0 4.3 47 5.3 S 2 4 1 2 1015.9 1014.7 0.0
20/01:00am 16.1 13.7 4.5 46 5.5 S 6 7 3 4 1016.2 1015.1 0.0
20/12:30am 16.2 14.2 4.3 45 5.6 SSE 4 6 2 3 1016.2 1015.1 0.0
20/12:00am 16.8 15.4 3.5 41 6.2 CALM 0 0 0 0 1016.2 1015.1 0.0
 
Date/Time
CST
Temp
°C
App
Temp
°C
Dew
Point
Rel
Hum
%
Delta-T
°C
Wind Press
QNH
hPa
Press
MSL
hPa
Rain
since 9 am
mm
Dir
 
Spd
km/h
Gust
km/h
Spd
kts
Gust
kts
19/11:30pm 17.9 16.4 3.0 37 6.9 CALM 0 2 0 1 1016.1 1015.0 0.0
19/11:00pm 19.7 17.1 3.0 33 7.9 NE 6 6 3 3 1015.9 1014.7 0.0
19/10:30pm 20.5 17.8 2.8 31 8.4 NNE 6 7 3 4 1015.7 1014.5 0.0
19/10:00pm 21.8 19.3 1.5 26 9.5 NE 4 6 2 3 1015.8 1014.6 0.0
19/09:30pm 24.4 21.4 1.9 23 10.8 NE 7 9 4 5 1015.4 1014.2 0.0
19/09:11pm 24.4 20.9 3.7 26 10.3 NE 11 17 6 9 1015.2 1014.0 0.0
19/09:00pm 19.4 17.7 1.9 31 8.1 CALM 0 13 0 7 1015.1 1013.9 0.0
19/08:30pm 20.4 18.6 1.3 28 8.8 CALM 0 0 0 0 1014.5 1013.3 0.0
19/08:00pm 21.4 19.1 0.6 25 9.5 ESE 2 4 1 2 1014.3 1013.1 0.0
19/07:30pm 23.2 21.2 -0.3 21 10.7 CALM 0 0 0 0 1013.8 1012.6 0.0
19/07:00pm 26.4 23.6 -3.2 14 13.1 ENE 2 4 1 2 1013.2 1012.1 0.0
19/06:58pm 26.8 23.7 -2.9 14 13.3 ENE 4 4 2 2 1013.2 1012.1 0.0
19/06:30pm 31.9 28.5 -2.2 11 16.1 E 6 9 3 5 1012.7 1011.6 0.0
19/06:00pm 34.7 31.4 -1.4 10 17.6 E 6 11 3 6 1012.3 1011.2 0.0
19/05:30pm 36.0 32.2 -0.4 10 18.1 E 9 17 5 9 1012.1 1011.0 0.0
19/05:00pm 36.9 33.4 -1.1 9 18.8 ENE 7 15 4 8 1011.9 1010.8 0.0
19/04:30pm 36.8 31.8 -1.2 9 18.8 E 15 26 8 14 1011.9 1010.8 0.0
19/04:00pm 37.3 33.1 -0.9 9 19.0 E 11 22 6 12 1011.9 1010.8 0.0
19/03:30pm 36.9 31.9 -1.1 9 18.8 ENE 15 26 8 14 1012.1 1011.0 0.0
19/03:00pm 38.0 33.5 -0.3 9 19.4 E 13 26 7 14 1012.3 1011.2 0.0
19/02:30pm 38.0 32.4 -0.3 9 19.4 ENE 19 32 10 17 1012.8 1011.7 0.0
19/02:00pm 37.5 32.8 0.7 10 18.8 ENE 15 28 8 15 1013.3 1012.2 0.0
19/01:30pm 36.9 32.5 0.3 10 18.5 ENE 13 28 7 15 1014.1 1012.9 0.0
19/01:00pm 36.2 30.6 1.1 11 17.9 E 20 30 11 16 1014.8 1013.6 0.0
19/12:30pm 36.0 31.1 -0.4 10 18.1 NE 15 30 8 16 1015.5 1014.3 0.0
19/12:00pm 35.0 30.4 -1.1 10 17.7 NE 13 22 7 12 1016.0 1014.8 0.0
19/11:30am 34.8 29.9 2.3 13 16.8 NE 17 26 9 14 1016.5 1015.4 0.0
19/11:00am 34.5 29.6 2.1 13 16.7 ENE 17 32 9 17 1017.1 1016.0 0.0
19/10:30am 32.8 29.5 4.6 17 14.9 NE 11 19 6 10 1017.6 1016.5 0.0
19/10:00am 30.9 28.6 7.4 23 12.9 NNE 9 19 5 10 1018.1 1017.0 0.0
19/09:30am 28.5 27.6 9.2 30 10.8 NE 4 7 2 4 1018.3 1017.2 0.0
19/09:00am 25.8 24.9 10.8 39 8.5 NNE 6 7 3 4 1018.4 1017.3 0.0
19/08:30am 24.8 24.2 10.3 40 8.1 NE 4 7 2 4 1018.2 1017.1 0.0
19/08:00am 22.7 21.9 6.5 35 8.4 CALM 0 0 0 0 1018.1 1017.0 0.0
19/07:54am 21.6 20.7 5.9 36 8.0 CALM 0 0 0 0 1018.0 1016.9 0.0
19/07:30am 16.6 15.7 5.9 49 5.2 CALM 0 0 0 0 1017.6 1016.5 0.0
19/07:00am 12.8 12.0 6.4 65 3.1 CALM 0 0 0 0 1017.2 1016.1 0.0
19/06:30am 11.5 10.4 5.2 65 2.9 CALM 0 0 0 0 1017.0 1015.9 0.0
19/06:00am 11.8 10.7 5.2 64 3.1 CALM 0 0 0 0 1016.6 1015.5 0.0
19/05:30am 12.0 10.5 5.2 63 3.2 S 2 4 1 2 1016.3 1015.2 0.0
19/05:00am 12.3 10.4 5.0 61 3.4 SSW 4 4 2 2 1016.1 1015.0 0.0
19/04:30am 12.5 10.6 5.0 60 3.5 SSW 4 4 2 2 1015.8 1014.6 0.0
19/04:00am 13.0 11.9 4.9 58 3.8 CALM 0 0 0 0 1015.4 1014.2 0.0
19/03:30am 13.3 12.2 5.0 57 3.9 CALM 0 0 0 0 1015.5 1014.3 0.0
19/03:00am 13.8 12.7 5.2 56 4.1 CALM 0 2 0 1 1015.6 1014.4 0.0
19/02:30am 14.1 12.6 4.9 54 4.3 E 2 4 1 2 1015.7 1014.5 0.0
19/02:00am 14.5 12.6 4.8 52 4.6 E 4 6 2 3 1015.8 1014.6 0.0
19/01:30am 14.9 12.9 4.6 50 4.8 ENE 4 4 2 2 1016.1 1015.0 0.0
19/01:00am 15.6 14.0 4.3 47 5.3 E 2 4 1 2 1016.2 1015.1 0.0
19/12:30am 16.6 15.3 4.3 44 5.8 CALM 0 0 0 0 1016.3 1015.2 0.0
19/12:00am 17.8 16.0 3.7 39 6.7 ENE 2 4 1 2 1016.5 1015.4 0.0
 
Date/Time
CST
Temp
°C
App
Temp
°C
Dew
Point
Rel
Hum
%
Delta-T
°C
Wind Press
QNH
hPa
Press
MSL
hPa
Rain
since 9 am
mm
Dir
 
Spd
km/h
Gust
km/h
Spd
kts
Gust
kts
18/11:30pm 20.0 18.5 2.8 32 8.1 CALM 0 4 0 2 1016.6 1015.5 0.0
18/11:00pm 23.0 20.5 3.5 28 9.5 NE 6 7 3 4 1016.6 1015.5 0.0
18/10:30pm 24.8 21.8 4.0 26 10.4 NE 9 11 5 6 1016.6 1015.5 0.0
18/10:00pm 25.7 23.0 3.6 24 11.0 NE 7 11 4 6 1016.4 1015.3 0.0
18/09:30pm 25.0 22.2 3.0 24 10.8 NE 7 9 4 5 1016.3 1015.2 0.0
18/09:00pm 27.1 23.5 2.9 21 12.0 NE 11 15 6 8 1015.8 1014.6 0.0
18/08:43pm 26.8 24.0 5.1 25 11.2 NE 9 19 5 10 1015.5 1014.3 0.0
18/08:30pm 21.3 19.0 2.6 29 8.9 E 4 6 2 3 1015.1 1013.9 0.0
18/08:00pm 21.9 20.2 1.6 26 9.5 CALM 0 4 0 2 1014.7 1013.5 0.0
18/07:30pm 23.9 21.3 0.9 22 10.8 ENE 4 4 2 2 1014.2 1013.0 0.0
18/07:00pm 27.1 23.8 -0.9 16 13.0 ENE 6 7 3 4 1013.8 1012.6 0.0
18/06:30pm 31.7 28.4 -0.1 13 15.5 ENE 7 11 4 6 1013.3 1012.2 0.0
18/06:00pm 34.0 30.0 0.6 12 16.7 E 11 24 6 13 1012.9 1011.8 0.0
18/05:30pm 35.1 31.8 0.2 11 17.5 E 7 17 4 9 1012.7 1011.6 0.0
18/05:00pm 36.1 31.4 1.0 11 17.9 E 15 24 8 13 1012.6 1011.5 0.0
18/04:30pm 36.2 33.1 1.1 11 17.9 NE 7 19 4 10 1012.7 1011.6 0.0
18/04:00pm 36.2 31.7 -0.2 10 18.2 NE 13 22 7 12 1012.7 1011.6 0.0
18/03:30pm 36.1 32.4 -0.3 10 18.2 E 9 20 5 11 1012.9 1011.8 0.0
18/03:00pm 36.2 32.3 1.1 11 17.9 E 11 24 6 13 1013.3 1012.2 0.0
18/02:30pm 36.0 32.4 0.9 11 17.9 NE 9 19 5 10 1013.9 1012.7 0.0
18/02:00pm 35.8 31.1 0.8 11 17.8 E 15 22 8 12 1014.5 1013.3 0.0
18/01:30pm 35.9 30.4 0.9 11 17.8 E 19 32 10 17 1015.1 1013.9 0.0
18/01:00pm 35.7 31.9 1.9 12 17.4 NE 11 24 6 13 1015.6 1014.4 0.0
18/12:30pm 35.9 32.3 3.2 13 17.2 NE 11 26 6 14 1016.2 1015.1 0.0
18/12:00pm 34.2 31.2 3.9 15 16.0 SE 9 19 5 10 1016.9 1015.8 0.0
18/11:30am 34.5 30.9 5.0 16 15.9 ENE 13 24 7 13 1017.6 1016.5 0.0
18/11:00am 33.1 30.7 7.1 20 14.4 ENE 9 20 5 11 1018.2 1017.1 0.0
18/10:30am 32.3 29.7 7.9 22 13.6 NE 11 19 6 10 1018.7 1017.5 0.0
18/10:00am 30.7 29.2 9.0 26 12.2 NE 7 11 4 6 1018.9 1017.7 0.0
18/09:30am 28.8 28.3 12.2 35 9.7 NNE 6 11 3 6 1019.1 1017.9 0.0
18/09:00am 26.2 27.6 15.3 51 6.6 NNE 2 6 1 3 1019.0 1017.8 0.0
18/08:30am 24.1 25.3 14.8 56 5.6 E 2 4 1 2 1018.8 1017.6 0.0
18/08:00am 22.0 22.5 14.1 61 4.7 E 4 6 2 3 1018.6 1017.4 0.0
18/07:30am 18.1 18.7 11.9 67 3.4 CALM 0 4 0 2 1017.9 1016.8 0.0
18/07:00am 13.4 12.9 9.3 76 2.1 S 2 4 1 2 1017.7 1016.6 0.0
18/06:30am 12.7 12.3 8.4 75 2.2 CALM 0 0 0 0 1017.5 1016.4 0.0
18/06:00am 13.3 13.0 8.6 73 2.4 CALM 0 0 0 0 1017.0 1015.9 0.0
18/05:30am 14.1 13.9 9.1 72 2.6 CALM 0 4 0 2 1016.8 1015.7 0.0
18/05:00am 14.8 14.7 9.4 70 2.8 CALM 0 0 0 0 1016.4 1015.3 0.0
18/04:30am 13.8 12.2 8.2 69 2.8 SSE 6 7 3 4 1016.2 1015.1 0.0
18/04:00am 14.2 13.7 7.9 66 3.2 CALM 0 4 0 2 1015.8 1014.6 0.0
18/03:30am 14.7 14.2 8.0 64 3.4 CALM 0 0 0 0 1015.7 1014.5 0.0
18/03:00am 15.2 14.8 8.2 63 3.6 CALM 0 0 0 0 1015.9 1014.7 0.0
18/02:30am 15.7 14.9 8.2 61 3.8 SSE 2 4 1 2 1016.0 1014.8 0.0
18/02:00am 16.7 16.3 8.4 58 4.3 CALM 0 4 0 2 1016.0 1014.8 0.0
18/01:30am 17.6 16.2 9.0 57 4.5 ESE 6 9 3 5 1016.5 1015.4 0.0
18/01:00am 17.4 16.9 8.0 54 4.8 CALM 0 0 0 0 1016.2 1015.1 0.0
18/12:30am 17.9 16.2 8.5 54 4.9 SSE 7 9 4 5 1016.4 1015.3 0.0
18/12:00am 18.4 17.8 7.2 48 5.7 CALM 0 0 0 0 1016.2 1015.1 0.0
 
Date/Time
CST
Temp
°C
App
Temp
°C
Dew
Point
Rel
Hum
%
Delta-T
°C
Wind Press
QNH
hPa
Press
MSL
hPa
Rain
since 9 am
mm
Dir
 
Spd
km/h
Gust
km/h
Spd
kts
Gust
kts
17/11:30pm 19.6 18.8 6.7 43 6.5 CALM 0 4 0 2 1016.2 1015.1 0.0
17/11:00pm 23.0 21.2 7.1 36 8.3 NE 6 7 3 4 1016.0 1014.8 0.0
17/10:30pm 24.9 22.9 7.1 32 9.4 NE 7 11 4 6 1016.1 1015.0 0.0
17/10:00pm 26.4 24.0 6.9 29 10.4 NE 9 15 5 8 1015.9 1014.7 0.0
17/09:30pm 25.0 21.9 5.7 29 10.0 ENE 11 19 6 10 1015.6 1014.4 0.0
17/09:00pm 22.5 20.8 4.1 30 9.1 SE 2 4 1 2 1014.9 1013.7 0.0
17/08:30pm 23.3 21.5 3.3 27 9.8 ESE 2 4 1 2 1014.6 1013.4 0.0
17/08:00pm 23.8 21.5 2.6 25 10.3 E 4 6 2 3 1014.2 1013.0 0.0
17/07:30pm 24.3 21.4 2.5 24 10.6 ENE 7 9 4 5 1013.7 1012.5 0.0
17/07:00pm 26.1 23.5 0.7 19 12.1 SE 4 4 2 2 1012.9 1011.8 0.0
17/06:30pm 30.8 28.1 0.2 14 14.9 SSE 4 6 2 3 1012.6 1011.5 0.0
17/06:00pm 34.2 30.2 0.8 12 16.8 SE 11 19 6 10 1012.3 1011.2 0.0
17/05:30pm 35.3 32.2 1.6 12 17.3 E 7 13 4 7 1011.9 1010.8 0.0
17/05:00pm 35.8 33.0 2.0 12 17.5 ESE 6 13 3 7 1011.6 1010.4 0.0
17/04:30pm 36.5 33.2 2.5 12 17.8 ESE 9 20 5 11 1011.6 1010.4 0.0
17/04:00pm 36.3 33.0 2.4 12 17.7 ESE 9 17 5 9 1011.7 1010.5 0.0
17/03:30pm 36.4 33.5 2.5 12 17.7 SW 7 20 4 11 1011.6 1010.4 0.0
17/03:00pm 37.1 34.5 4.1 13 17.8 ESE 7 13 4 7 1012.0 1010.9 0.0
17/02:30pm 34.4 30.8 3.1 14 16.3 ESE 11 20 6 11 1012.6 1011.5 0.0
17/02:00pm 34.3 30.3 3.0 14 16.3 ESE 13 22 7 12 1012.9 1011.8 0.0
17/01:30pm 36.6 33.3 4.8 14 17.3 E 11 20 6 11 1013.6 1012.4 0.0
17/01:00pm 36.0 32.7 4.3 14 17.0 E 11 26 6 14 1014.2 1013.0 0.0
17/12:30pm 35.0 30.9 4.5 15 16.3 E 15 26 8 14 1014.8 1013.6 0.0
17/12:00pm 35.5 32.6 6.7 17 16.0 E 11 28 6 15 1015.3 1014.1 0.0
17/11:30am 33.7 31.1 7.6 20 14.6 E 11 22 6 12 1015.9 1014.7 0.0
17/11:00am 33.1 30.1 7.9 21 14.1 ENE 13 24 7 13 1016.4 1015.3 0.0
17/10:30am 32.3 30.6 9.8 25 12.9 NE 9 17 5 9 1016.8 1015.7 0.0
17/10:00am 31.0 29.7 11.4 30 11.5 ENE 9 15 5 8 1017.1 1016.0 0.0
17/09:30am 27.8 28.0 14.1 43 8.3 NW 6 11 3 6 1017.1 1016.0 0.0

Other Formats:

Comma delimited format used in spreadsheet applications
http://www.bom.gov.au/fwo/IDD60801/IDD60801.94234.axf

JavaScript Object Notation format (JSON) in row-major order
http://www.bom.gov.au/fwo/IDD60801/IDD60801.94234.json